sensor_id;sensor_type;location;lat;lon;timestamp;P1;durP1;ratioP1;P2;durP2;ratioP2
41903;SDS011;27586;51.124;4.182;2023-11-19T00:00:19;6.82;;;4.25;;
41903;SDS011;27586;51.124;4.182;2023-11-19T00:02:45;11.65;;;5.20;;
41903;SDS011;27586;51.124;4.182;2023-11-19T00:05:12;12.63;;;4.45;;
41903;SDS011;27586;51.124;4.182;2023-11-19T00:07:38;7.15;;;3.95;;
41903;SDS011;27586;51.124;4.182;2023-11-19T00:10:11;13.95;;;4.40;;
41903;SDS011;27586;51.124;4.182;2023-11-19T00:12:39;10.35;;;4.05;;
41903;SDS011;27586;51.124;4.182;2023-11-19T00:15:07;10.43;;;4.50;;
41903;SDS011;27586;51.124;4.182;2023-11-19T00:17:36;16.88;;;4.75;;
41903;SDS011;27586;51.124;4.182;2023-11-19T00:20:03;13.40;;;4.00;;
41903;SDS011;27586;51.124;4.182;2023-11-19T00:22:31;15.63;;;4.40;;
41903;SDS011;27586;51.124;4.182;2023-11-19T00:24:56;15.68;;;4.78;;
41903;SDS011;27586;51.124;4.182;2023-11-19T00:27:22;16.42;;;4.88;;
41903;SDS011;27586;51.124;4.182;2023-11-19T00:29:48;16.65;;;4.55;;
41903;SDS011;27586;51.124;4.182;2023-11-19T00:32:14;17.58;;;4.38;;
41903;SDS011;27586;51.124;4.182;2023-11-19T00:34:40;17.10;;;4.28;;
41903;SDS011;27586;51.124;4.182;2023-11-19T00:37:08;18.23;;;4.50;;
41903;SDS011;27586;51.124;4.182;2023-11-19T00:39:34;17.23;;;5.18;;
41903;SDS011;27586;51.124;4.182;2023-11-19T00:41:59;17.42;;;4.78;;
41903;SDS011;27586;51.124;4.182;2023-11-19T00:44:25;18.00;;;4.95;;
41903;SDS011;27586;51.124;4.182;2023-11-19T00:46:50;14.82;;;4.53;;
41903;SDS011;27586;51.124;4.182;2023-11-19T00:49:16;20.92;;;4.90;;
41903;SDS011;27586;51.124;4.182;2023-11-19T00:51:42;17.52;;;4.57;;
41903;SDS011;27586;51.124;4.182;2023-11-19T00:54:07;16.80;;;4.55;;
41903;SDS011;27586;51.124;4.182;2023-11-19T00:56:33;26.95;;;5.45;;
41903;SDS011;27586;51.124;4.182;2023-11-19T00:58:58;22.33;;;5.20;;
41903;SDS011;27586;51.124;4.182;2023-11-19T01:01:25;24.50;;;6.00;;
41903;SDS011;27586;51.124;4.182;2023-11-19T01:03:51;19.88;;;5.32;;
41903;SDS011;27586;51.124;4.182;2023-11-19T01:06:26;23.15;;;5.97;;
41903;SDS011;27586;51.124;4.182;2023-11-19T01:08:55;30.08;;;6.75;;
41903;SDS011;27586;51.124;4.182;2023-11-19T01:11:22;21.60;;;5.88;;
41903;SDS011;27586;51.124;4.182;2023-11-19T01:13:48;26.65;;;6.40;;
41903;SDS011;27586;51.124;4.182;2023-11-19T01:16:15;29.45;;;6.75;;
41903;SDS011;27586;51.124;4.182;2023-11-19T01:18:40;29.98;;;6.50;;
41903;SDS011;27586;51.124;4.182;2023-11-19T01:21:06;25.48;;;6.45;;
41903;SDS011;27586;51.124;4.182;2023-11-19T01:23:32;28.08;;;6.75;;
41903;SDS011;27586;51.124;4.182;2023-11-19T01:25:57;26.98;;;5.97;;
41903;SDS011;27586;51.124;4.182;2023-11-19T01:28:23;22.45;;;5.13;;
41903;SDS011;27586;51.124;4.182;2023-11-19T01:30:52;29.63;;;6.32;;
41903;SDS011;27586;51.124;4.182;2023-11-19T01:33:18;25.92;;;5.90;;
41903;SDS011;27586;51.124;4.182;2023-11-19T01:35:43;26.48;;;5.97;;
41903;SDS011;27586;51.124;4.182;2023-11-19T01:38:09;28.77;;;5.95;;
41903;SDS011;27586;51.124;4.182;2023-11-19T01:40:35;22.30;;;5.50;;
41903;SDS011;27586;51.124;4.182;2023-11-19T01:43:01;26.10;;;6.13;;
41903;SDS011;27586;51.124;4.182;2023-11-19T01:45:28;28.73;;;6.63;;
41903;SDS011;27586;51.124;4.182;2023-11-19T01:47:59;30.38;;;6.88;;
41903;SDS011;27586;51.124;4.182;2023-11-19T01:50:27;24.88;;;6.57;;
41903;SDS011;27586;51.124;4.182;2023-11-19T01:52:53;31.85;;;6.85;;
41903;SDS011;27586;51.124;4.182;2023-11-19T01:55:22;25.83;;;6.90;;
41903;SDS011;27586;51.124;4.182;2023-11-19T01:57:49;31.45;;;7.22;;
41903;SDS011;27586;51.124;4.182;2023-11-19T02:00:16;30.25;;;6.63;;
41903;SDS011;27586;51.124;4.182;2023-11-19T02:02:44;30.65;;;6.70;;
41903;SDS011;27586;51.124;4.182;2023-11-19T02:05:11;34.00;;;6.85;;
41903;SDS011;27586;51.124;4.182;2023-11-19T02:07:38;36.67;;;7.70;;
41903;SDS011;27586;51.124;4.182;2023-11-19T02:10:04;28.20;;;7.35;;
41903;SDS011;27586;51.124;4.182;2023-11-19T02:12:31;28.75;;;6.88;;
41903;SDS011;27586;51.124;4.182;2023-11-19T02:15:00;28.20;;;6.90;;
41903;SDS011;27586;51.124;4.182;2023-11-19T02:17:28;30.70;;;7.72;;
41903;SDS011;27586;51.124;4.182;2023-11-19T02:19:56;37.72;;;7.45;;
41903;SDS011;27586;51.124;4.182;2023-11-19T02:22:22;27.52;;;6.75;;
41903;SDS011;27586;51.124;4.182;2023-11-19T02:24:47;28.73;;;7.95;;
41903;SDS011;27586;51.124;4.182;2023-11-19T02:27:19;31.63;;;7.38;;
41903;SDS011;27586;51.124;4.182;2023-11-19T02:29:58;29.05;;;7.28;;
41903;SDS011;27586;51.124;4.182;2023-11-19T02:32:27;39.05;;;7.30;;
41903;SDS011;27586;51.124;4.182;2023-11-19T02:34:53;29.10;;;6.20;;
41903;SDS011;27586;51.124;4.182;2023-11-19T02:37:19;36.08;;;7.80;;
41903;SDS011;27586;51.124;4.182;2023-11-19T02:39:44;25.95;;;6.50;;
41903;SDS011;27586;51.124;4.182;2023-11-19T02:42:10;28.20;;;7.15;;
41903;SDS011;27586;51.124;4.182;2023-11-19T02:44:36;36.33;;;7.45;;
41903;SDS011;27586;51.124;4.182;2023-11-19T02:47:01;25.02;;;6.93;;
41903;SDS011;27586;51.124;4.182;2023-11-19T02:49:28;28.95;;;7.35;;
41903;SDS011;27586;51.124;4.182;2023-11-19T02:51:54;35.67;;;7.60;;
41903;SDS011;27586;51.124;4.182;2023-11-19T02:54:19;38.22;;;7.63;;
41903;SDS011;27586;51.124;4.182;2023-11-19T02:56:46;29.63;;;6.85;;
41903;SDS011;27586;51.124;4.182;2023-11-19T02:59:20;32.15;;;7.30;;
41903;SDS011;27586;51.124;4.182;2023-11-19T03:01:52;28.98;;;7.20;;
41903;SDS011;27586;51.124;4.182;2023-11-19T03:04:18;30.35;;;7.07;;
41903;SDS011;27586;51.124;4.182;2023-11-19T03:06:45;35.10;;;7.53;;
41903;SDS011;27586;51.124;4.182;2023-11-19T03:09:11;30.70;;;7.25;;
41903;SDS011;27586;51.124;4.182;2023-11-19T03:11:37;37.22;;;7.68;;
41903;SDS011;27586;51.124;4.182;2023-11-19T03:14:03;23.70;;;6.95;;
41903;SDS011;27586;51.124;4.182;2023-11-19T03:16:29;36.03;;;7.85;;
41903;SDS011;27586;51.124;4.182;2023-11-19T03:18:55;40.53;;;9.13;;
41903;SDS011;27586;51.124;4.182;2023-11-19T03:21:30;34.75;;;7.55;;
41903;SDS011;27586;51.124;4.182;2023-11-19T03:23:57;33.42;;;7.72;;
41903;SDS011;27586;51.124;4.182;2023-11-19T03:26:25;32.58;;;8.07;;
41903;SDS011;27586;51.124;4.182;2023-11-19T03:28:52;35.58;;;8.05;;
41903;SDS011;27586;51.124;4.182;2023-11-19T03:31:18;41.60;;;8.75;;
41903;SDS011;27586;51.124;4.182;2023-11-19T03:33:44;39.33;;;8.55;;
41903;SDS011;27586;51.124;4.182;2023-11-19T03:36:10;32.63;;;8.32;;
41903;SDS011;27586;51.124;4.182;2023-11-19T03:38:36;35.15;;;7.95;;
41903;SDS011;27586;51.124;4.182;2023-11-19T03:41:09;36.42;;;8.48;;
41903;SDS011;27586;51.124;4.182;2023-11-19T03:43:38;31.65;;;7.55;;
41903;SDS011;27586;51.124;4.182;2023-11-19T03:46:04;29.98;;;7.50;;
41903;SDS011;27586;51.124;4.182;2023-11-19T03:48:40;39.80;;;8.63;;
41903;SDS011;27586;51.124;4.182;2023-11-19T03:51:06;39.97;;;8.18;;
41903;SDS011;27586;51.124;4.182;2023-11-19T03:53:31;27.95;;;7.60;;
41903;SDS011;27586;51.124;4.182;2023-11-19T03:55:57;32.10;;;7.10;;
41903;SDS011;27586;51.124;4.182;2023-11-19T03:58:23;36.00;;;7.40;;
41903;SDS011;27586;51.124;4.182;2023-11-19T04:00:49;33.78;;;7.68;;
41903;SDS011;27586;51.124;4.182;2023-11-19T04:03:15;30.92;;;7.28;;
41903;SDS011;27586;51.124;4.182;2023-11-19T04:05:40;37.28;;;7.47;;
41903;SDS011;27586;51.124;4.182;2023-11-19T04:08:06;40.47;;;8.68;;
41903;SDS011;27586;51.124;4.182;2023-11-19T04:10:31;34.58;;;8.35;;
41903;SDS011;27586;51.124;4.182;2023-11-19T04:12:57;36.00;;;8.73;;
41903;SDS011;27586;51.124;4.182;2023-11-19T04:15:23;28.23;;;7.22;;
41903;SDS011;27586;51.124;4.182;2023-11-19T04:17:49;32.38;;;8.07;;
41903;SDS011;27586;51.124;4.182;2023-11-19T04:20:14;32.58;;;8.15;;
41903;SDS011;27586;51.124;4.182;2023-11-19T04:22:40;39.63;;;8.80;;
41903;SDS011;27586;51.124;4.182;2023-11-19T04:25:06;33.08;;;8.43;;
41903;SDS011;27586;51.124;4.182;2023-11-19T04:27:32;33.33;;;7.93;;
41903;SDS011;27586;51.124;4.182;2023-11-19T04:29:57;27.45;;;7.13;;
41903;SDS011;27586;51.124;4.182;2023-11-19T04:32:23;34.72;;;8.75;;
41903;SDS011;27586;51.124;4.182;2023-11-19T04:34:50;31.05;;;7.95;;
41903;SDS011;27586;51.124;4.182;2023-11-19T04:37:16;30.20;;;7.60;;
41903;SDS011;27586;51.124;4.182;2023-11-19T04:39:43;40.75;;;8.85;;
41903;SDS011;27586;51.124;4.182;2023-11-19T04:42:10;37.90;;;8.90;;
41903;SDS011;27586;51.124;4.182;2023-11-19T04:44:36;33.80;;;7.88;;
41903;SDS011;27586;51.124;4.182;2023-11-19T04:47:01;36.05;;;8.57;;
41903;SDS011;27586;51.124;4.182;2023-11-19T04:49:27;37.47;;;8.02;;
41903;SDS011;27586;51.124;4.182;2023-11-19T04:51:52;40.10;;;8.07;;
41903;SDS011;27586;51.124;4.182;2023-11-19T04:54:18;31.60;;;7.82;;
41903;SDS011;27586;51.124;4.182;2023-11-19T04:56:47;32.25;;;7.70;;
41903;SDS011;27586;51.124;4.182;2023-11-19T04:59:13;34.30;;;8.48;;
41903;SDS011;27586;51.124;4.182;2023-11-19T05:01:39;30.88;;;8.13;;
41903;SDS011;27586;51.124;4.182;2023-11-19T05:04:05;32.67;;;8.23;;
41903;SDS011;27586;51.124;4.182;2023-11-19T05:06:32;37.20;;;9.18;;
41903;SDS011;27586;51.124;4.182;2023-11-19T05:08:59;38.63;;;9.30;;
41903;SDS011;27586;51.124;4.182;2023-11-19T05:11:33;39.85;;;9.27;;
41903;SDS011;27586;51.124;4.182;2023-11-19T05:13:59;38.00;;;8.05;;
41903;SDS011;27586;51.124;4.182;2023-11-19T05:16:25;31.75;;;8.18;;
41903;SDS011;27586;51.124;4.182;2023-11-19T05:18:51;32.08;;;7.70;;
41903;SDS011;27586;51.124;4.182;2023-11-19T05:21:16;37.15;;;8.82;;
41903;SDS011;27586;51.124;4.182;2023-11-19T05:23:42;31.38;;;7.63;;
41903;SDS011;27586;51.124;4.182;2023-11-19T05:26:08;29.95;;;7.70;;
41903;SDS011;27586;51.124;4.182;2023-11-19T05:28:37;30.90;;;8.48;;
41903;SDS011;27586;51.124;4.182;2023-11-19T05:31:04;37.92;;;8.85;;
41903;SDS011;27586;51.124;4.182;2023-11-19T05:33:31;38.45;;;8.52;;
41903;SDS011;27586;51.124;4.182;2023-11-19T05:35:56;35.70;;;7.72;;
41903;SDS011;27586;51.124;4.182;2023-11-19T05:38:22;35.70;;;7.90;;
41903;SDS011;27586;51.124;4.182;2023-11-19T05:40:48;35.85;;;8.45;;
41903;SDS011;27586;51.124;4.182;2023-11-19T05:43:14;37.17;;;8.10;;
41903;SDS011;27586;51.124;4.182;2023-11-19T05:45:41;33.75;;;7.97;;
41903;SDS011;27586;51.124;4.182;2023-11-19T05:48:07;39.30;;;8.55;;
41903;SDS011;27586;51.124;4.182;2023-11-19T05:50:34;28.92;;;7.88;;
41903;SDS011;27586;51.124;4.182;2023-11-19T05:53:00;36.75;;;8.63;;
41903;SDS011;27586;51.124;4.182;2023-11-19T05:55:26;41.35;;;9.60;;
41903;SDS011;27586;51.124;4.182;2023-11-19T05:57:53;34.53;;;9.13;;
41903;SDS011;27586;51.124;4.182;2023-11-19T06:00:19;30.52;;;8.15;;
41903;SDS011;27586;51.124;4.182;2023-11-19T06:02:44;35.30;;;8.63;;
41903;SDS011;27586;51.124;4.182;2023-11-19T06:05:10;37.10;;;9.00;;
41903;SDS011;27586;51.124;4.182;2023-11-19T06:07:37;34.75;;;7.97;;
41903;SDS011;27586;51.124;4.182;2023-11-19T06:10:04;39.38;;;9.07;;
41903;SDS011;27586;51.124;4.182;2023-11-19T06:12:32;34.90;;;8.65;;
41903;SDS011;27586;51.124;4.182;2023-11-19T06:15:02;38.70;;;8.77;;
41903;SDS011;27586;51.124;4.182;2023-11-19T06:17:29;35.58;;;8.85;;
41903;SDS011;27586;51.124;4.182;2023-11-19T06:19:55;30.00;;;8.00;;
41903;SDS011;27586;51.124;4.182;2023-11-19T06:22:21;38.78;;;8.80;;
41903;SDS011;27586;51.124;4.182;2023-11-19T06:24:46;33.78;;;8.68;;
41903;SDS011;27586;51.124;4.182;2023-11-19T06:27:12;33.13;;;8.18;;
41903;SDS011;27586;51.124;4.182;2023-11-19T06:29:38;33.72;;;9.10;;
41903;SDS011;27586;51.124;4.182;2023-11-19T06:32:05;37.03;;;8.65;;
41903;SDS011;27586;51.124;4.182;2023-11-19T06:34:33;33.35;;;9.27;;
41903;SDS011;27586;51.124;4.182;2023-11-19T06:36:59;28.17;;;7.30;;
41903;SDS011;27586;51.124;4.182;2023-11-19T06:39:24;39.28;;;9.07;;
41903;SDS011;27586;51.124;4.182;2023-11-19T06:41:50;35.35;;;8.85;;
41903;SDS011;27586;51.124;4.182;2023-11-19T06:44:17;30.10;;;8.32;;
41903;SDS011;27586;51.124;4.182;2023-11-19T06:46:42;32.78;;;8.05;;
41903;SDS011;27586;51.124;4.182;2023-11-19T06:49:08;38.55;;;6.68;;
41903;SDS011;27586;51.124;4.182;2023-11-19T06:51:34;29.35;;;6.13;;
41903;SDS011;27586;51.124;4.182;2023-11-19T06:54:00;32.92;;;8.38;;
41903;SDS011;27586;51.124;4.182;2023-11-19T06:56:26;33.47;;;7.53;;
41903;SDS011;27586;51.124;4.182;2023-11-19T06:58:52;38.30;;;8.73;;
41903;SDS011;27586;51.124;4.182;2023-11-19T07:01:18;38.83;;;8.25;;
41903;SDS011;27586;51.124;4.182;2023-11-19T07:03:47;32.63;;;7.95;;
41903;SDS011;27586;51.124;4.182;2023-11-19T07:06:13;36.13;;;8.32;;
41903;SDS011;27586;51.124;4.182;2023-11-19T07:08:43;35.40;;;8.30;;
41903;SDS011;27586;51.124;4.182;2023-11-19T07:11:12;33.88;;;9.00;;
41903;SDS011;27586;51.124;4.182;2023-11-19T07:13:39;35.72;;;8.52;;
41903;SDS011;27586;51.124;4.182;2023-11-19T07:16:06;34.45;;;8.18;;
41903;SDS011;27586;51.124;4.182;2023-11-19T07:18:34;38.55;;;9.00;;
41903;SDS011;27586;51.124;4.182;2023-11-19T07:21:00;39.60;;;9.45;;
41903;SDS011;27586;51.124;4.182;2023-11-19T07:23:28;36.67;;;9.27;;
41903;SDS011;27586;51.124;4.182;2023-11-19T07:25:53;35.72;;;8.38;;
41903;SDS011;27586;51.124;4.182;2023-11-19T07:28:19;40.78;;;9.25;;
41903;SDS011;27586;51.124;4.182;2023-11-19T07:30:45;31.35;;;6.00;;
41903;SDS011;27586;51.124;4.182;2023-11-19T07:33:11;37.08;;;9.27;;
41903;SDS011;27586;51.124;4.182;2023-11-19T07:35:38;34.85;;;9.18;;
41903;SDS011;27586;51.124;4.182;2023-11-19T07:38:06;44.63;;;9.02;;
41903;SDS011;27586;51.124;4.182;2023-11-19T07:40:32;43.08;;;9.85;;
41903;SDS011;27586;51.124;4.182;2023-11-19T07:42:57;35.17;;;8.95;;
41903;SDS011;27586;51.124;4.182;2023-11-19T07:45:23;39.75;;;8.85;;
41903;SDS011;27586;51.124;4.182;2023-11-19T07:47:48;30.67;;;8.27;;
41903;SDS011;27586;51.124;4.182;2023-11-19T07:50:16;31.75;;;7.93;;
41903;SDS011;27586;51.124;4.182;2023-11-19T07:52:44;37.75;;;9.25;;
41903;SDS011;27586;51.124;4.182;2023-11-19T07:55:10;43.08;;;8.98;;
41903;SDS011;27586;51.124;4.182;2023-11-19T07:57:35;36.42;;;8.25;;
41903;SDS011;27586;51.124;4.182;2023-11-19T08:00:02;35.60;;;8.65;;
41903;SDS011;27586;51.124;4.182;2023-11-19T08:02:29;33.22;;;8.05;;
41903;SDS011;27586;51.124;4.182;2023-11-19T08:04:54;32.65;;;8.13;;
41903;SDS011;27586;51.124;4.182;2023-11-19T08:07:20;39.47;;;8.70;;
41903;SDS011;27586;51.124;4.182;2023-11-19T08:09:47;34.28;;;7.25;;
41903;SDS011;27586;51.124;4.182;2023-11-19T08:12:12;35.60;;;8.20;;
41903;SDS011;27586;51.124;4.182;2023-11-19T08:14:40;52.47;;;8.93;;
41903;SDS011;27586;51.124;4.182;2023-11-19T08:17:06;39.10;;;9.00;;
41903;SDS011;27586;51.124;4.182;2023-11-19T08:19:32;34.03;;;8.77;;
41903;SDS011;27586;51.124;4.182;2023-11-19T08:21:58;35.10;;;9.13;;
41903;SDS011;27586;51.124;4.182;2023-11-19T08:24:23;32.60;;;8.52;;
41903;SDS011;27586;51.124;4.182;2023-11-19T08:26:49;31.80;;;8.68;;
41903;SDS011;27586;51.124;4.182;2023-11-19T08:29:14;41.30;;;9.10;;
41903;SDS011;27586;51.124;4.182;2023-11-19T08:31:40;38.13;;;9.23;;
41903;SDS011;27586;51.124;4.182;2023-11-19T08:34:06;37.25;;;9.13;;
41903;SDS011;27586;51.124;4.182;2023-11-19T08:36:35;32.20;;;8.45;;
41903;SDS011;27586;51.124;4.182;2023-11-19T08:39:00;32.10;;;8.15;;
41903;SDS011;27586;51.124;4.182;2023-11-19T08:41:26;38.15;;;9.40;;
41903;SDS011;27586;51.124;4.182;2023-11-19T08:43:52;42.40;;;9.70;;
41903;SDS011;27586;51.124;4.182;2023-11-19T08:46:18;37.35;;;8.77;;
41903;SDS011;27586;51.124;4.182;2023-11-19T08:48:44;31.30;;;8.13;;
41903;SDS011;27586;51.124;4.182;2023-11-19T08:51:11;34.55;;;7.82;;
41903;SDS011;27586;51.124;4.182;2023-11-19T08:53:37;35.78;;;9.15;;
41903;SDS011;27586;51.124;4.182;2023-11-19T08:56:02;41.47;;;8.73;;
41903;SDS011;27586;51.124;4.182;2023-11-19T08:58:28;35.55;;;8.98;;
41903;SDS011;27586;51.124;4.182;2023-11-19T09:00:54;32.42;;;8.23;;
41903;SDS011;27586;51.124;4.182;2023-11-19T09:03:20;31.73;;;7.57;;
41903;SDS011;27586;51.124;4.182;2023-11-19T09:05:46;33.17;;;8.50;;
41903;SDS011;27586;51.124;4.182;2023-11-19T09:08:12;27.77;;;7.30;;
41903;SDS011;27586;51.124;4.182;2023-11-19T09:10:37;30.67;;;8.32;;
41903;SDS011;27586;51.124;4.182;2023-11-19T09:13:03;31.88;;;7.90;;
41903;SDS011;27586;51.124;4.182;2023-11-19T09:15:29;36.15;;;8.02;;
41903;SDS011;27586;51.124;4.182;2023-11-19T09:17:55;33.08;;;8.57;;
41903;SDS011;27586;51.124;4.182;2023-11-19T09:20:21;29.35;;;7.35;;
41903;SDS011;27586;51.124;4.182;2023-11-19T09:22:47;29.83;;;8.25;;
41903;SDS011;27586;51.124;4.182;2023-11-19T09:25:12;37.60;;;8.60;;
41903;SDS011;27586;51.124;4.182;2023-11-19T09:27:41;30.25;;;7.80;;
41903;SDS011;27586;51.124;4.182;2023-11-19T09:30:08;31.48;;;7.70;;
41903;SDS011;27586;51.124;4.182;2023-11-19T09:32:34;25.58;;;7.50;;
41903;SDS011;27586;51.124;4.182;2023-11-19T09:35:00;27.05;;;7.00;;
41903;SDS011;27586;51.124;4.182;2023-11-19T09:37:27;27.63;;;6.85;;
41903;SDS011;27586;51.124;4.182;2023-11-19T09:39:53;26.00;;;7.53;;
41903;SDS011;27586;51.124;4.182;2023-11-19T09:42:19;30.08;;;7.68;;
41903;SDS011;27586;51.124;4.182;2023-11-19T09:44:45;23.58;;;6.93;;
41903;SDS011;27586;51.124;4.182;2023-11-19T09:47:12;27.08;;;7.80;;
41903;SDS011;27586;51.124;4.182;2023-11-19T09:49:39;29.33;;;7.25;;
41903;SDS011;27586;51.124;4.182;2023-11-19T09:52:05;26.25;;;6.88;;
41903;SDS011;27586;51.124;4.182;2023-11-19T09:54:31;37.58;;;7.97;;
41903;SDS011;27586;51.124;4.182;2023-11-19T09:56:57;21.73;;;7.07;;
41903;SDS011;27586;51.124;4.182;2023-11-19T09:59:27;25.42;;;6.63;;
41903;SDS011;27586;51.124;4.182;2023-11-19T10:01:54;22.58;;;6.65;;
41903;SDS011;27586;51.124;4.182;2023-11-19T10:04:21;23.42;;;6.95;;
41903;SDS011;27586;51.124;4.182;2023-11-19T10:06:48;20.83;;;5.75;;
41903;SDS011;27586;51.124;4.182;2023-11-19T10:09:16;25.20;;;6.15;;
41903;SDS011;27586;51.124;4.182;2023-11-19T10:11:41;27.63;;;7.07;;
41903;SDS011;27586;51.124;4.182;2023-11-19T10:14:07;23.70;;;6.60;;
41903;SDS011;27586;51.124;4.182;2023-11-19T10:16:34;28.92;;;6.68;;
41903;SDS011;27586;51.124;4.182;2023-11-19T10:19:00;26.77;;;6.65;;
41903;SDS011;27586;51.124;4.182;2023-11-19T10:21:26;22.30;;;6.43;;
41903;SDS011;27586;51.124;4.182;2023-11-19T10:23:56;22.80;;;5.57;;
41903;SDS011;27586;51.124;4.182;2023-11-19T10:26:24;23.77;;;6.47;;
41903;SDS011;27586;51.124;4.182;2023-11-19T10:28:52;24.77;;;6.25;;
41903;SDS011;27586;51.124;4.182;2023-11-19T10:31:18;21.73;;;6.13;;
41903;SDS011;27586;51.124;4.182;2023-11-19T10:33:49;26.35;;;6.60;;
41903;SDS011;27586;51.124;4.182;2023-11-19T10:36:15;26.15;;;6.85;;
41903;SDS011;27586;51.124;4.182;2023-11-19T10:38:51;26.33;;;6.22;;
41903;SDS011;27586;51.124;4.182;2023-11-19T10:41:30;25.98;;;6.65;;
41903;SDS011;27586;51.124;4.182;2023-11-19T10:43:57;24.58;;;6.15;;
41903;SDS011;27586;51.124;4.182;2023-11-19T10:46:23;22.52;;;6.32;;
41903;SDS011;27586;51.124;4.182;2023-11-19T10:49:05;24.00;;;6.35;;
41903;SDS011;27586;51.124;4.182;2023-11-19T10:51:31;24.83;;;6.63;;
41903;SDS011;27586;51.124;4.182;2023-11-19T10:54:05;23.75;;;6.38;;
41903;SDS011;27586;51.124;4.182;2023-11-19T10:56:31;20.52;;;6.03;;
41903;SDS011;27586;51.124;4.182;2023-11-19T10:59:01;21.60;;;6.15;;
41903;SDS011;27586;51.124;4.182;2023-11-19T11:01:38;23.52;;;5.95;;
41903;SDS011;27586;51.124;4.182;2023-11-19T11:04:15;21.85;;;5.38;;
41903;SDS011;27586;51.124;4.182;2023-11-19T11:06:47;24.10;;;6.30;;
41903;SDS011;27586;51.124;4.182;2023-11-19T11:09:14;19.33;;;6.03;;
41903;SDS011;27586;51.124;4.182;2023-11-19T11:11:40;18.63;;;6.03;;
41903;SDS011;27586;51.124;4.182;2023-11-19T11:14:09;23.92;;;6.15;;
41903;SDS011;27586;51.124;4.182;2023-11-19T11:16:42;22.70;;;6.00;;
41903;SDS011;27586;51.124;4.182;2023-11-19T11:19:09;20.98;;;5.82;;
41903;SDS011;27586;51.124;4.182;2023-11-19T11:21:36;25.17;;;6.22;;
41903;SDS011;27586;51.124;4.182;2023-11-19T11:37:39;21.85;;;5.90;;
41903;SDS011;27586;51.124;4.182;2023-11-19T11:40:16;24.75;;;6.65;;
41903;SDS011;27586;51.124;4.182;2023-11-19T11:42:43;22.92;;;5.85;;
41903;SDS011;27586;51.124;4.182;2023-11-19T11:45:10;23.05;;;6.30;;
41903;SDS011;27586;51.124;4.182;2023-11-19T11:50:13;23.80;;;5.72;;
41903;SDS011;27586;51.124;4.182;2023-11-19T11:58:17;22.20;;;6.03;;
41903;SDS011;27586;51.124;4.182;2023-11-19T12:00:43;24.20;;;6.45;;
41903;SDS011;27586;51.124;4.182;2023-11-19T12:03:11;25.83;;;5.53;;
41903;SDS011;27586;51.124;4.182;2023-11-19T12:05:43;26.30;;;6.55;;
41903;SDS011;27586;51.124;4.182;2023-11-19T12:08:10;28.27;;;6.20;;
41903;SDS011;27586;51.124;4.182;2023-11-19T12:10:45;22.42;;;6.03;;
41903;SDS011;27586;51.124;4.182;2023-11-19T12:13:12;24.38;;;6.78;;
41903;SDS011;27586;51.124;4.182;2023-11-19T12:20:54;21.45;;;5.82;;
41903;SDS011;27586;51.124;4.182;2023-11-19T12:23:21;25.10;;;6.50;;
41903;SDS011;27586;51.124;4.182;2023-11-19T12:25:48;26.80;;;6.68;;
41903;SDS011;27586;51.124;4.182;2023-11-19T12:28:14;25.15;;;6.68;;
41903;SDS011;27586;51.124;4.182;2023-11-19T12:30:42;26.35;;;6.75;;
41903;SDS011;27586;51.124;4.182;2023-11-19T12:33:09;27.58;;;7.43;;
41903;SDS011;27586;51.124;4.182;2023-11-19T12:35:42;24.33;;;6.57;;
41903;SDS011;27586;51.124;4.182;2023-11-19T12:38:19;22.65;;;6.50;;
41903;SDS011;27586;51.124;4.182;2023-11-19T12:41:06;21.35;;;5.93;;
41903;SDS011;27586;51.124;4.182;2023-11-19T12:43:35;22.42;;;5.75;;
41903;SDS011;27586;51.124;4.182;2023-11-19T12:46:02;23.02;;;6.38;;
41903;SDS011;27586;51.124;4.182;2023-11-19T12:48:29;17.85;;;5.60;;
41903;SDS011;27586;51.124;4.182;2023-11-19T12:50:55;25.10;;;6.60;;
41903;SDS011;27586;51.124;4.182;2023-11-19T12:53:22;23.63;;;5.88;;
41903;SDS011;27586;51.124;4.182;2023-11-19T12:55:49;22.27;;;6.05;;
41903;SDS011;27586;51.124;4.182;2023-11-19T12:58:29;20.83;;;5.88;;
41903;SDS011;27586;51.124;4.182;2023-11-19T13:01:02;19.98;;;5.63;;
41903;SDS011;27586;51.124;4.182;2023-11-19T13:03:29;23.77;;;6.70;;
41903;SDS011;27586;51.124;4.182;2023-11-19T13:06:03;25.35;;;6.85;;
41903;SDS011;27586;51.124;4.182;2023-11-19T13:08:40;22.67;;;5.88;;
41903;SDS011;27586;51.124;4.182;2023-11-19T13:11:09;22.00;;;5.75;;
41903;SDS011;27586;51.124;4.182;2023-11-19T13:16:25;21.33;;;5.63;;
41903;SDS011;27586;51.124;4.182;2023-11-19T13:18:51;20.52;;;5.13;;
41903;SDS011;27586;51.124;4.182;2023-11-19T13:21:17;25.20;;;6.40;;
41903;SDS011;27586;51.124;4.182;2023-11-19T13:23:43;20.70;;;5.85;;
41903;SDS011;27586;51.124;4.182;2023-11-19T13:26:08;23.48;;;5.43;;
41903;SDS011;27586;51.124;4.182;2023-11-19T13:28:35;25.23;;;6.13;;
41903;SDS011;27586;51.124;4.182;2023-11-19T13:31:01;23.20;;;6.45;;
41903;SDS011;27586;51.124;4.182;2023-11-19T13:33:28;26.25;;;6.25;;
41903;SDS011;27586;51.124;4.182;2023-11-19T13:35:54;27.02;;;6.38;;
41903;SDS011;27586;51.124;4.182;2023-11-19T13:38:20;25.95;;;5.60;;
41903;SDS011;27586;51.124;4.182;2023-11-19T13:40:48;20.35;;;5.65;;
41903;SDS011;27586;51.124;4.182;2023-11-19T13:43:13;25.60;;;6.32;;
41903;SDS011;27586;51.124;4.182;2023-11-19T13:45:39;20.20;;;5.80;;
41903;SDS011;27586;51.124;4.182;2023-11-19T13:48:04;22.73;;;6.63;;
41903;SDS011;27586;51.124;4.182;2023-11-19T13:50:30;23.20;;;6.30;;
41903;SDS011;27586;51.124;4.182;2023-11-19T13:52:57;23.08;;;5.53;;
41903;SDS011;27586;51.124;4.182;2023-11-19T13:55:22;25.15;;;7.10;;
41903;SDS011;27586;51.124;4.182;2023-11-19T13:57:48;25.83;;;6.38;;
41903;SDS011;27586;51.124;4.182;2023-11-19T14:00:14;20.80;;;6.32;;
41903;SDS011;27586;51.124;4.182;2023-11-19T14:02:44;26.35;;;6.32;;
41903;SDS011;27586;51.124;4.182;2023-11-19T14:05:11;26.13;;;7.18;;
41903;SDS011;27586;51.124;4.182;2023-11-19T14:07:41;24.13;;;6.82;;
41903;SDS011;27586;51.124;4.182;2023-11-19T14:10:08;25.55;;;7.13;;
41903;SDS011;27586;51.124;4.182;2023-11-19T14:12:36;26.55;;;7.15;;
41903;SDS011;27586;51.124;4.182;2023-11-19T14:15:08;25.67;;;7.18;;
41903;SDS011;27586;51.124;4.182;2023-11-19T14:17:35;28.02;;;6.90;;
41903;SDS011;27586;51.124;4.182;2023-11-19T14:20:04;29.75;;;7.35;;
41903;SDS011;27586;51.124;4.182;2023-11-19T14:22:43;26.73;;;6.80;;
41903;SDS011;27586;51.124;4.182;2023-11-19T14:25:13;27.08;;;6.25;;
41903;SDS011;27586;51.124;4.182;2023-11-19T14:27:40;29.08;;;7.00;;
41903;SDS011;27586;51.124;4.182;2023-11-19T14:30:07;22.35;;;6.43;;
41903;SDS011;27586;51.124;4.182;2023-11-19T14:32:36;18.70;;;5.43;;
41903;SDS011;27586;51.124;4.182;2023-11-19T14:35:02;21.50;;;6.03;;
41903;SDS011;27586;51.124;4.182;2023-11-19T14:37:31;22.40;;;6.22;;
41903;SDS011;27586;51.124;4.182;2023-11-19T14:39:57;25.52;;;6.68;;
41903;SDS011;27586;51.124;4.182;2023-11-19T14:42:24;24.52;;;6.10;;
41903;SDS011;27586;51.124;4.182;2023-11-19T14:44:52;22.70;;;7.05;;
41903;SDS011;27586;51.124;4.182;2023-11-19T14:47:19;23.52;;;7.18;;
41903;SDS011;27586;51.124;4.182;2023-11-19T14:49:44;22.45;;;6.93;;
41903;SDS011;27586;51.124;4.182;2023-11-19T14:52:10;24.70;;;6.55;;
41903;SDS011;27586;51.124;4.182;2023-11-19T14:54:36;21.35;;;5.85;;
41903;SDS011;27586;51.124;4.182;2023-11-19T14:57:03;24.90;;;6.68;;
41903;SDS011;27586;51.124;4.182;2023-11-19T14:59:29;22.13;;;6.88;;
41903;SDS011;27586;51.124;4.182;2023-11-19T15:01:55;22.48;;;6.50;;
41903;SDS011;27586;51.124;4.182;2023-11-19T15:04:22;20.17;;;5.50;;